sensor_id;sensor_type;location;lat;lon;timestamp;temperature;humidity
16408;DHT22;8313;49.894;8.084;2023-05-20T00:01:59;16.10;96.50
16408;DHT22;8313;49.894;8.084;2023-05-20T00:04:25;16.10;96.60
16408;DHT22;8313;49.894;8.084;2023-05-20T00:06:50;16.10;96.60
16408;DHT22;8313;49.894;8.084;2023-05-20T00:09:16;16.20;96.70
16408;DHT22;8313;49.894;8.084;2023-05-20T00:11:42;16.10;96.70
16408;DHT22;8313;49.894;8.084;2023-05-20T00:14:07;16.10;96.80
16408;DHT22;8313;49.894;8.084;2023-05-20T00:16:33;16.10;96.90
16408;DHT22;8313;49.894;8.084;2023-05-20T00:18:59;16.10;96.90
16408;DHT22;8313;49.894;8.084;2023-05-20T00:21:24;16.00;97.10
16408;DHT22;8313;49.894;8.084;2023-05-20T00:23:50;16.10;97.00
16408;DHT22;8313;49.894;8.084;2023-05-20T00:26:16;16.10;97.00
16408;DHT22;8313;49.894;8.084;2023-05-20T00:28:43;16.10;97.30
16408;DHT22;8313;49.894;8.084;2023-05-20T00:31:09;16.10;97.60
16408;DHT22;8313;49.894;8.084;2023-05-20T00:33:35;16.00;97.20
16408;DHT22;8313;49.894;8.084;2023-05-20T00:36:01;16.10;97.30
16408;DHT22;8313;49.894;8.084;2023-05-20T00:38:27;16.00;97.30
16408;DHT22;8313;49.894;8.084;2023-05-20T00:40:52;16.00;97.40
16408;DHT22;8313;49.894;8.084;2023-05-20T00:43:18;16.00;97.40
16408;DHT22;8313;49.894;8.084;2023-05-20T00:45:45;16.00;97.60
16408;DHT22;8313;49.894;8.084;2023-05-20T00:48:12;15.90;97.60
16408;DHT22;8313;49.894;8.084;2023-05-20T00:50:38;15.90;97.60
16408;DHT22;8313;49.894;8.084;2023-05-20T00:53:05;16.00;97.60
16408;DHT22;8313;49.894;8.084;2023-05-20T00:55:31;15.90;97.70
16408;DHT22;8313;49.894;8.084;2023-05-20T00:57:57;15.90;97.90
16408;DHT22;8313;49.894;8.084;2023-05-20T01:00:23;15.90;98.00
16408;DHT22;8313;49.894;8.084;2023-05-20T01:02:48;15.90;97.90
16408;DHT22;8313;49.894;8.084;2023-05-20T01:05:14;15.80;98.00
16408;DHT22;8313;49.894;8.084;2023-05-20T01:07:40;15.80;98.00
16408;DHT22;8313;49.894;8.084;2023-05-20T01:10:07;15.80;98.10
16408;DHT22;8313;49.894;8.084;2023-05-20T01:12:47;15.80;98.10
16408;DHT22;8313;49.894;8.084;2023-05-20T01:15:14;15.80;98.30
16408;DHT22;8313;49.894;8.084;2023-05-20T01:17:45;15.80;98.20
16408;DHT22;8313;49.894;8.084;2023-05-20T01:20:13;15.80;98.20
16408;DHT22;8313;49.894;8.084;2023-05-20T01:22:52;15.90;98.60
16408;DHT22;8313;49.894;8.084;2023-05-20T01:25:18;15.90;98.20
16408;DHT22;8313;49.894;8.084;2023-05-20T01:27:45;15.90;98.10
16408;DHT22;8313;49.894;8.084;2023-05-20T01:30:11;15.80;98.30
16408;DHT22;8313;49.894;8.084;2023-05-20T01:32:42;15.80;98.40
16408;DHT22;8313;49.894;8.084;2023-05-20T01:35:09;15.80;98.70
16408;DHT22;8313;49.894;8.084;2023-05-20T01:37:39;15.70;98.80
16408;DHT22;8313;49.894;8.084;2023-05-20T01:40:10;15.70;98.90
16408;DHT22;8313;49.894;8.084;2023-05-20T01:42:38;15.70;98.90
16408;DHT22;8313;49.894;8.084;2023-05-20T01:45:05;15.70;98.90
16408;DHT22;8313;49.894;8.084;2023-05-20T01:47:30;15.70;99.00
16408;DHT22;8313;49.894;8.084;2023-05-20T01:49:56;15.70;99.20
16408;DHT22;8313;49.894;8.084;2023-05-20T01:52:22;15.70;99.10
16408;DHT22;8313;49.894;8.084;2023-05-20T01:54:48;15.70;99.10
16408;DHT22;8313;49.894;8.084;2023-05-20T01:57:19;15.70;99.30
16408;DHT22;8313;49.894;8.084;2023-05-20T01:59:46;15.60;99.30
16408;DHT22;8313;49.894;8.084;2023-05-20T02:02:12;15.60;99.30
16408;DHT22;8313;49.894;8.084;2023-05-20T02:04:38;15.70;99.20
16408;DHT22;8313;49.894;8.084;2023-05-20T02:07:05;15.60;99.30
16408;DHT22;8313;49.894;8.084;2023-05-20T02:09:30;15.60;99.50
16408;DHT22;8313;49.894;8.084;2023-05-20T02:11:56;15.50;99.40
16408;DHT22;8313;49.894;8.084;2023-05-20T02:14:22;15.60;99.20
16408;DHT22;8313;49.894;8.084;2023-05-20T02:16:47;15.60;99.10
16408;DHT22;8313;49.894;8.084;2023-05-20T02:19:13;15.60;99.30
16408;DHT22;8313;49.894;8.084;2023-05-20T02:21:44;15.50;99.40
16408;DHT22;8313;49.894;8.084;2023-05-20T02:24:11;15.50;99.40
16408;DHT22;8313;49.894;8.084;2023-05-20T02:26:37;15.50;99.50
16408;DHT22;8313;49.894;8.084;2023-05-20T02:29:03;15.50;99.50
16408;DHT22;8313;49.894;8.084;2023-05-20T02:31:28;15.40;99.40
16408;DHT22;8313;49.894;8.084;2023-05-20T02:33:54;15.40;99.60
16408;DHT22;8313;49.894;8.084;2023-05-20T02:36:20;15.40;99.50
16408;DHT22;8313;49.894;8.084;2023-05-20T02:38:45;15.40;99.60
16408;DHT22;8313;49.894;8.084;2023-05-20T02:41:11;15.30;99.80
16408;DHT22;8313;49.894;8.084;2023-05-20T02:43:37;15.20;99.90
16408;DHT22;8313;49.894;8.084;2023-05-20T02:46:03;15.20;99.80
16408;DHT22;8313;49.894;8.084;2023-05-20T02:48:29;15.20;99.80
16408;DHT22;8313;49.894;8.084;2023-05-20T02:50:54;15.20;99.90
16408;DHT22;8313;49.894;8.084;2023-05-20T02:53:20;15.20;99.90
16408;DHT22;8313;49.894;8.084;2023-05-20T02:55:46;15.20;99.90
16408;DHT22;8313;49.894;8.084;2023-05-20T02:58:13;15.10;99.90
16408;DHT22;8313;49.894;8.084;2023-05-20T03:00:39;15.10;99.90
16408;DHT22;8313;49.894;8.084;2023-05-20T03:03:08;15.10;99.90
16408;DHT22;8313;49.894;8.084;2023-05-20T03:05:35;15.10;99.90
16408;DHT22;8313;49.894;8.084;2023-05-20T03:08:11;15.10;99.90
16408;DHT22;8313;49.894;8.084;2023-05-20T03:10:38;15.10;99.90
16408;DHT22;8313;49.894;8.084;2023-05-20T03:13:05;15.10;99.90
16408;DHT22;8313;49.894;8.084;2023-05-20T03:15:38;15.10;99.90
16408;DHT22;8313;49.894;8.084;2023-05-20T03:18:04;15.10;99.90
16408;DHT22;8313;49.894;8.084;2023-05-20T03:20:30;15.00;99.90
16408;DHT22;8313;49.894;8.084;2023-05-20T03:23:04;15.00;99.90
16408;DHT22;8313;49.894;8.084;2023-05-20T03:25:30;15.00;99.90
16408;DHT22;8313;49.894;8.084;2023-05-20T03:27:56;15.00;99.90
16408;DHT22;8313;49.894;8.084;2023-05-20T03:30:23;14.90;99.90
16408;DHT22;8313;49.894;8.084;2023-05-20T03:32:50;14.90;99.90
16408;DHT22;8313;49.894;8.084;2023-05-20T03:35:16;14.90;99.90
16408;DHT22;8313;49.894;8.084;2023-05-20T03:37:41;14.90;99.90
16408;DHT22;8313;49.894;8.084;2023-05-20T03:40:08;14.80;99.90
16408;DHT22;8313;49.894;8.084;2023-05-20T03:42:38;14.80;99.90
16408;DHT22;8313;49.894;8.084;2023-05-20T03:45:05;14.80;99.90
16408;DHT22;8313;49.894;8.084;2023-05-20T03:47:35;14.80;99.90
16408;DHT22;8313;49.894;8.084;2023-05-20T03:50:01;14.80;99.90
16408;DHT22;8313;49.894;8.084;2023-05-20T03:52:28;14.70;99.90
16408;DHT22;8313;49.894;8.084;2023-05-20T03:54:55;14.70;99.90
16408;DHT22;8313;49.894;8.084;2023-05-20T03:57:21;14.70;99.90
16408;DHT22;8313;49.894;8.084;2023-05-20T03:59:47;14.70;99.90
16408;DHT22;8313;49.894;8.084;2023-05-20T04:02:13;14.60;99.90
16408;DHT22;8313;49.894;8.084;2023-05-20T04:04:39;14.70;99.90
16408;DHT22;8313;49.894;8.084;2023-05-20T04:07:10;14.70;99.90
16408;DHT22;8313;49.894;8.084;2023-05-20T04:09:37;14.70;99.90
16408;DHT22;8313;49.894;8.084;2023-05-20T04:12:04;14.70;99.90
16408;DHT22;8313;49.894;8.084;2023-05-20T04:14:30;14.70;99.90
16408;DHT22;8313;49.894;8.084;2023-05-20T04:16:58;14.60;99.90
16408;DHT22;8313;49.894;8.084;2023-05-20T04:19:24;14.60;99.90
16408;DHT22;8313;49.894;8.084;2023-05-20T04:21:53;14.60;99.90
16408;DHT22;8313;49.894;8.084;2023-05-20T04:24:19;14.60;99.90
16408;DHT22;8313;49.894;8.084;2023-05-20T04:26:50;14.50;99.90
16408;DHT22;8313;49.894;8.084;2023-05-20T04:29:17;14.60;99.90
16408;DHT22;8313;49.894;8.084;2023-05-20T04:31:45;14.70;99.90
16408;DHT22;8313;49.894;8.084;2023-05-20T04:34:11;14.70;99.90
16408;DHT22;8313;49.894;8.084;2023-05-20T04:36:37;14.70;99.90
16408;DHT22;8313;49.894;8.084;2023-05-20T04:39:03;14.70;99.90
16408;DHT22;8313;49.894;8.084;2023-05-20T04:41:30;14.60;99.90
16408;DHT22;8313;49.894;8.084;2023-05-20T04:43:56;14.60;99.90
16408;DHT22;8313;49.894;8.084;2023-05-20T04:46:26;14.60;99.90
16408;DHT22;8313;49.894;8.084;2023-05-20T04:48:52;14.60;99.90
16408;DHT22;8313;49.894;8.084;2023-05-20T04:51:18;14.50;99.90
16408;DHT22;8313;49.894;8.084;2023-05-20T04:53:44;14.60;99.90
16408;DHT22;8313;49.894;8.084;2023-05-20T04:56:10;14.60;99.90
16408;DHT22;8313;49.894;8.084;2023-05-20T04:58:36;14.60;99.90
16408;DHT22;8313;49.894;8.084;2023-05-20T05:01:02;14.60;99.90
16408;DHT22;8313;49.894;8.084;2023-05-20T05:03:28;14.60;99.90
16408;DHT22;8313;49.894;8.084;2023-05-20T05:05:56;14.60;99.90
16408;DHT22;8313;49.894;8.084;2023-05-20T05:08:22;14.60;99.90
16408;DHT22;8313;49.894;8.084;2023-05-20T05:10:50;14.60;99.90
16408;DHT22;8313;49.894;8.084;2023-05-20T05:13:16;14.60;99.90
16408;DHT22;8313;49.894;8.084;2023-05-20T05:15:41;14.60;99.90
16408;DHT22;8313;49.894;8.084;2023-05-20T05:18:07;14.50;99.90
16408;DHT22;8313;49.894;8.084;2023-05-20T05:20:34;14.50;99.90
16408;DHT22;8313;49.894;8.084;2023-05-20T05:23:01;14.50;99.90
16408;DHT22;8313;49.894;8.084;2023-05-20T05:25:26;14.50;99.90
16408;DHT22;8313;49.894;8.084;2023-05-20T05:27:52;14.50;99.90
16408;DHT22;8313;49.894;8.084;2023-05-20T05:30:20;14.50;99.90
16408;DHT22;8313;49.894;8.084;2023-05-20T05:32:49;14.50;99.90
16408;DHT22;8313;49.894;8.084;2023-05-20T05:35:16;14.50;99.90
16408;DHT22;8313;49.894;8.084;2023-05-20T05:37:41;14.60;99.90
16408;DHT22;8313;49.894;8.084;2023-05-20T05:40:08;14.50;99.90
16408;DHT22;8313;49.894;8.084;2023-05-20T05:42:33;14.50;99.90
16408;DHT22;8313;49.894;8.084;2023-05-20T05:45:00;14.60;99.90
16408;DHT22;8313;49.894;8.084;2023-05-20T05:47:26;14.60;99.90
16408;DHT22;8313;49.894;8.084;2023-05-20T05:49:57;14.60;99.90
16408;DHT22;8313;49.894;8.084;2023-05-20T05:52:25;14.70;99.90
16408;DHT22;8313;49.894;8.084;2023-05-20T05:54:51;14.70;99.90
16408;DHT22;8313;49.894;8.084;2023-05-20T05:57:17;14.70;99.90
16408;DHT22;8313;49.894;8.084;2023-05-20T05:59:43;14.70;99.90
16408;DHT22;8313;49.894;8.084;2023-05-20T06:02:08;14.70;99.90
16408;DHT22;8313;49.894;8.084;2023-05-20T06:04:35;14.70;99.90
16408;DHT22;8313;49.894;8.084;2023-05-20T06:07:01;14.70;99.90
16408;DHT22;8313;49.894;8.084;2023-05-20T06:09:26;14.70;99.90
16408;DHT22;8313;49.894;8.084;2023-05-20T06:11:53;14.80;99.90
16408;DHT22;8313;49.894;8.084;2023-05-20T06:14:19;14.80;99.90
16408;DHT22;8313;49.894;8.084;2023-05-20T06:16:45;14.90;99.90
16408;DHT22;8313;49.894;8.084;2023-05-20T06:19:11;14.90;99.90
16408;DHT22;8313;49.894;8.084;2023-05-20T06:21:37;14.90;99.90
16408;DHT22;8313;49.894;8.084;2023-05-20T06:24:04;14.90;99.90
16408;DHT22;8313;49.894;8.084;2023-05-20T06:26:30;15.00;99.90
16408;DHT22;8313;49.894;8.084;2023-05-20T06:28:56;15.00;99.90
16408;DHT22;8313;49.894;8.084;2023-05-20T06:31:22;15.10;99.90
16408;DHT22;8313;49.894;8.084;2023-05-20T06:33:49;15.20;99.90
16408;DHT22;8313;49.894;8.084;2023-05-20T06:36:15;15.30;99.90
16408;DHT22;8313;49.894;8.084;2023-05-20T06:38:41;15.30;99.90
16408;DHT22;8313;49.894;8.084;2023-05-20T06:41:07;15.40;99.90
16408;DHT22;8313;49.894;8.084;2023-05-20T06:43:32;15.50;99.90
16408;DHT22;8313;49.894;8.084;2023-05-20T06:46:03;15.60;99.90
16408;DHT22;8313;49.894;8.084;2023-05-20T06:48:38;15.60;99.90
16408;DHT22;8313;49.894;8.084;2023-05-20T06:51:08;15.70;99.90
16408;DHT22;8313;49.894;8.084;2023-05-20T06:53:35;15.80;99.90
16408;DHT22;8313;49.894;8.084;2023-05-20T06:56:01;15.80;99.90
16408;DHT22;8313;49.894;8.084;2023-05-20T06:58:27;15.90;99.90
16408;DHT22;8313;49.894;8.084;2023-05-20T07:00:55;15.90;99.90
16408;DHT22;8313;49.894;8.084;2023-05-20T07:03:22;16.00;99.90
16408;DHT22;8313;49.894;8.084;2023-05-20T07:05:49;16.00;99.90
16408;DHT22;8313;49.894;8.084;2023-05-20T07:08:14;16.10;99.90
16408;DHT22;8313;49.894;8.084;2023-05-20T07:10:40;16.10;99.90
16408;DHT22;8313;49.894;8.084;2023-05-20T07:13:07;16.10;99.90
16408;DHT22;8313;49.894;8.084;2023-05-20T07:15:33;16.20;99.90
16408;DHT22;8313;49.894;8.084;2023-05-20T07:17:58;16.20;99.90
16408;DHT22;8313;49.894;8.084;2023-05-20T07:20:25;16.20;99.90
16408;DHT22;8313;49.894;8.084;2023-05-20T07:22:51;16.20;99.90
16408;DHT22;8313;49.894;8.084;2023-05-20T07:25:22;16.20;99.90
16408;DHT22;8313;49.894;8.084;2023-05-20T07:27:49;16.20;99.90
16408;DHT22;8313;49.894;8.084;2023-05-20T07:30:15;16.40;99.90
16408;DHT22;8313;49.894;8.084;2023-05-20T07:32:46;16.50;99.90
16408;DHT22;8313;49.894;8.084;2023-05-20T07:35:11;16.50;99.90
16408;DHT22;8313;49.894;8.084;2023-05-20T07:37:37;16.60;99.90
16408;DHT22;8313;49.894;8.084;2023-05-20T07:40:05;16.60;99.90
16408;DHT22;8313;49.894;8.084;2023-05-20T07:42:31;16.70;99.90
16408;DHT22;8313;49.894;8.084;2023-05-20T07:44:59;16.80;99.90
16408;DHT22;8313;49.894;8.084;2023-05-20T07:47:25;16.80;99.90
16408;DHT22;8313;49.894;8.084;2023-05-20T07:49:51;16.80;99.90
16408;DHT22;8313;49.894;8.084;2023-05-20T07:52:18;16.80;99.90
16408;DHT22;8313;49.894;8.084;2023-05-20T07:54:44;16.80;99.90
16408;DHT22;8313;49.894;8.084;2023-05-20T07:57:10;16.80;99.90
16408;DHT22;8313;49.894;8.084;2023-05-20T07:59:36;17.00;99.90
16408;DHT22;8313;49.894;8.084;2023-05-20T08:02:02;16.90;99.90
16408;DHT22;8313;49.894;8.084;2023-05-20T08:04:27;17.10;99.90
16408;DHT22;8313;49.894;8.084;2023-05-20T08:06:55;17.10;99.90
16408;DHT22;8313;49.894;8.084;2023-05-20T08:09:30;17.20;99.90
16408;DHT22;8313;49.894;8.084;2023-05-20T08:11:57;17.20;99.90
16408;DHT22;8313;49.894;8.084;2023-05-20T08:14:22;17.20;99.90
16408;DHT22;8313;49.894;8.084;2023-05-20T08:16:51;17.30;99.90
16408;DHT22;8313;49.894;8.084;2023-05-20T08:19:16;17.40;99.90
16408;DHT22;8313;49.894;8.084;2023-05-20T08:21:45;17.30;99.90
16408;DHT22;8313;49.894;8.084;2023-05-20T08:24:11;17.40;99.90
16408;DHT22;8313;49.894;8.084;2023-05-20T08:26:38;17.50;99.90
16408;DHT22;8313;49.894;8.084;2023-05-20T08:29:04;17.40;99.90
16408;DHT22;8313;49.894;8.084;2023-05-20T08:31:31;17.30;99.90
16408;DHT22;8313;49.894;8.084;2023-05-20T08:33:58;17.40;99.90
16408;DHT22;8313;49.894;8.084;2023-05-20T08:36:23;17.30;99.90
16408;DHT22;8313;49.894;8.084;2023-05-20T08:38:49;17.30;99.90
16408;DHT22;8313;49.894;8.084;2023-05-20T08:41:15;17.40;99.90
16408;DHT22;8313;49.894;8.084;2023-05-20T08:43:43;17.40;99.90
16408;DHT22;8313;49.894;8.084;2023-05-20T08:46:09;17.50;99.90
16408;DHT22;8313;49.894;8.084;2023-05-20T08:48:37;17.60;99.90
16408;DHT22;8313;49.894;8.084;2023-05-20T08:51:03;17.60;99.90
16408;DHT22;8313;49.894;8.084;2023-05-20T08:53:29;17.60;99.90
16408;DHT22;8313;49.894;8.084;2023-05-20T08:56:00;17.60;99.90
16408;DHT22;8313;49.894;8.084;2023-05-20T08:58:31;17.70;99.90
16408;DHT22;8313;49.894;8.084;2023-05-20T09:00:59;17.70;99.90
16408;DHT22;8313;49.894;8.084;2023-05-20T09:03:26;17.70;99.90
16408;DHT22;8313;49.894;8.084;2023-05-20T09:05:52;17.60;99.90
16408;DHT22;8313;49.894;8.084;2023-05-20T09:08:22;17.70;99.90
16408;DHT22;8313;49.894;8.084;2023-05-20T09:10:51;17.80;99.90
16408;DHT22;8313;49.894;8.084;2023-05-20T09:13:17;17.90;99.90
16408;DHT22;8313;49.894;8.084;2023-05-20T09:15:43;18.00;99.90
16408;DHT22;8313;49.894;8.084;2023-05-20T09:18:09;17.90;99.90
16408;DHT22;8313;49.894;8.084;2023-05-20T09:20:37;18.00;99.90
16408;DHT22;8313;49.894;8.084;2023-05-20T09:23:05;18.00;99.90
16408;DHT22;8313;49.894;8.084;2023-05-20T09:25:31;18.20;99.90
16408;DHT22;8313;49.894;8.084;2023-05-20T09:27:57;18.30;99.90
16408;DHT22;8313;49.894;8.084;2023-05-20T09:30:23;18.20;99.90
16408;DHT22;8313;49.894;8.084;2023-05-20T09:32:58;18.30;99.90
16408;DHT22;8313;49.894;8.084;2023-05-20T09:35:25;18.60;99.90
16408;DHT22;8313;49.894;8.084;2023-05-20T09:37:53;18.70;99.90
16408;DHT22;8313;49.894;8.084;2023-05-20T09:40:26;18.60;99.90
16408;DHT22;8313;49.894;8.084;2023-05-20T09:43:03;18.80;99.90
16408;DHT22;8313;49.894;8.084;2023-05-20T09:45:29;18.90;99.90
16408;DHT22;8313;49.894;8.084;2023-05-20T09:47:55;18.90;99.90
16408;DHT22;8313;49.894;8.084;2023-05-20T09:50:23;19.10;99.90
16408;DHT22;8313;49.894;8.084;2023-05-20T09:52:50;19.00;99.90
16408;DHT22;8313;49.894;8.084;2023-05-20T09:55:18;18.90;99.90
16408;DHT22;8313;49.894;8.084;2023-05-20T09:57:45;18.80;99.90
16408;DHT22;8313;49.894;8.084;2023-05-20T10:00:12;18.90;99.90
16408;DHT22;8313;49.894;8.084;2023-05-20T10:02:46;19.00;99.90
16408;DHT22;8313;49.894;8.084;2023-05-20T10:05:20;19.10;99.90
16408;DHT22;8313;49.894;8.084;2023-05-20T10:21:17;19.80;99.90
16408;DHT22;8313;49.894;8.084;2023-05-20T10:23:43;19.70;99.90
16408;DHT22;8313;49.894;8.084;2023-05-20T10:26:09;19.70;99.90
16408;DHT22;8313;49.894;8.084;2023-05-20T10:28:36;19.70;99.90
16408;DHT22;8313;49.894;8.084;2023-05-20T10:31:17;19.70;99.90
16408;DHT22;8313;49.894;8.084;2023-05-20T10:33:45;19.80;99.90
16408;DHT22;8313;49.894;8.084;2023-05-20T10:36:28;19.70;99.90
16408;DHT22;8313;49.894;8.084;2023-05-20T10:38:58;19.60;99.90
16408;DHT22;8313;49.894;8.084;2023-05-20T10:41:25;19.60;99.90
16408;DHT22;8313;49.894;8.084;2023-05-20T10:44:04;19.50;99.90
16408;DHT22;8313;49.894;8.084;2023-05-20T10:46:32;19.60;99.90
16408;DHT22;8313;49.894;8.084;2023-05-20T10:48:58;19.70;99.90
16408;DHT22;8313;49.894;8.084;2023-05-20T10:51:24;19.50;99.90
16408;DHT22;8313;49.894;8.084;2023-05-20T10:53:54;19.40;99.90
16408;DHT22;8313;49.894;8.084;2023-05-20T10:56:24;19.40;99.90
16408;DHT22;8313;49.894;8.084;2023-05-20T10:58:52;19.40;99.90
16408;DHT22;8313;49.894;8.084;2023-05-20T11:01:21;19.50;99.90
16408;DHT22;8313;49.894;8.084;2023-05-20T11:03:48;19.50;99.90
16408;DHT22;8313;49.894;8.084;2023-05-20T11:06:16;19.70;99.90
16408;DHT22;8313;49.894;8.084;2023-05-20T11:08:43;19.60;99.90
16408;DHT22;8313;49.894;8.084;2023-05-20T11:11:11;19.60;99.90
16408;DHT22;8313;49.894;8.084;2023-05-20T11:13:37;19.60;99.90
16408;DHT22;8313;49.894;8.084;2023-05-20T11:16:04;19.70;99.90
16408;DHT22;8313;49.894;8.084;2023-05-20T11:18:30;19.80;99.90
16408;DHT22;8313;49.894;8.084;2023-05-20T11:21:00;19.90;99.90
16408;DHT22;8313;49.894;8.084;2023-05-20T11:23:27;20.00;99.90
16408;DHT22;8313;49.894;8.084;2023-05-20T11:25:54;20.20;99.90
16408;DHT22;8313;49.894;8.084;2023-05-20T11:28:21;20.30;99.90
16408;DHT22;8313;49.894;8.084;2023-05-20T11:30:48;20.30;99.90
16408;DHT22;8313;49.894;8.084;2023-05-20T11:33:15;20.50;99.90
16408;DHT22;8313;49.894;8.084;2023-05-20T11:35:49;20.60;99.90
16408;DHT22;8313;49.894;8.084;2023-05-20T11:38:15;20.50;99.90
16408;DHT22;8313;49.894;8.084;2023-05-20T11:40:46;20.50;99.90
16408;DHT22;8313;49.894;8.084;2023-05-20T11:43:13;20.80;99.90
16408;DHT22;8313;49.894;8.084;2023-05-20T11:45:40;20.90;99.90
16408;DHT22;8313;49.894;8.084;2023-05-20T11:48:06;20.70;99.90
16408;DHT22;8313;49.894;8.084;2023-05-20T11:50:34;20.50;99.90
16408;DHT22;8313;49.894;8.084;2023-05-20T11:53:08;20.60;99.90
16408;DHT22;8313;49.894;8.084;2023-05-20T11:55:44;20.40;99.90
16408;DHT22;8313;49.894;8.084;2023-05-20T11:58:14;20.50;99.90
16408;DHT22;8313;49.894;8.084;2023-05-20T12:00:39;20.50;99.90
16408;DHT22;8313;49.894;8.084;2023-05-20T12:03:05;20.50;99.90
16408;DHT22;8313;49.894;8.084;2023-05-20T12:05:31;20.80;99.90
16408;DHT22;8313;49.894;8.084;2023-05-20T12:07:56;20.60;99.90
16408;DHT22;8313;49.894;8.084;2023-05-20T12:10:22;20.60;99.90
16408;DHT22;8313;49.894;8.084;2023-05-20T12:12:47;20.60;99.90
16408;DHT22;8313;49.894;8.084;2023-05-20T12:15:13;20.90;99.90
16408;DHT22;8313;49.894;8.084;2023-05-20T12:17:50;20.90;99.90
16408;DHT22;8313;49.894;8.084;2023-05-20T12:20:16;20.90;99.90
16408;DHT22;8313;49.894;8.084;2023-05-20T12:22:43;20.90;99.90
16408;DHT22;8313;49.894;8.084;2023-05-20T12:25:14;20.90;99.90
16408;DHT22;8313;49.894;8.084;2023-05-20T12:27:41;21.20;99.90
16408;DHT22;8313;49.894;8.084;2023-05-20T12:30:08;21.20;99.90
16408;DHT22;8313;49.894;8.084;2023-05-20T12:32:37;21.10;99.90
16408;DHT22;8313;49.894;8.084;2023-05-20T12:35:03;21.10;99.90
16408;DHT22;8313;49.894;8.084;2023-05-20T12:37:29;20.90;99.90
16408;DHT22;8313;49.894;8.084;2023-05-20T12:39:55;20.90;99.90
16408;DHT22;8313;49.894;8.084;2023-05-20T12:42:21;21.00;99.90
16408;DHT22;8313;49.894;8.084;2023-05-20T12:44:46;21.00;99.90
16408;DHT22;8313;49.894;8.084;2023-05-20T12:47:12;21.00;99.90
16408;DHT22;8313;49.894;8.084;2023-05-20T12:49:38;21.20;99.90
16408;DHT22;8313;49.894;8.084;2023-05-20T12:52:03;21.40;99.90
16408;DHT22;8313;49.894;8.084;2023-05-20T12:54:29;21.10;99.90
16408;DHT22;8313;49.894;8.084;2023-05-20T12:56:56;21.10;99.90
16408;DHT22;8313;49.894;8.084;2023-05-20T12:59:22;20.90;99.90
16408;DHT22;8313;49.894;8.084;2023-05-20T13:01:47;21.00;99.90
16408;DHT22;8313;49.894;8.084;2023-05-20T13:04:13;20.90;99.90
16408;DHT22;8313;49.894;8.084;2023-05-20T13:06:39;21.00;99.90
16408;DHT22;8313;49.894;8.084;2023-05-20T13:09:05;21.10;99.90
16408;DHT22;8313;49.894;8.084;2023-05-20T13:11:30;21.20;99.90
16408;DHT22;8313;49.894;8.084;2023-05-20T13:13:56;21.10;99.90
16408;DHT22;8313;49.894;8.084;2023-05-20T13:16:23;21.20;99.90
16408;DHT22;8313;49.894;8.084;2023-05-20T13:18:49;21.20;99.90
16408;DHT22;8313;49.894;8.084;2023-05-20T13:21:14;21.00;99.90
16408;DHT22;8313;49.894;8.084;2023-05-20T13:23:41;21.00;99.90
16408;DHT22;8313;49.894;8.084;2023-05-20T13:26:07;21.00;99.90
16408;DHT22;8313;49.894;8.084;2023-05-20T13:28:33;21.10;99.90
16408;DHT22;8313;49.894;8.084;2023-05-20T13:31:01;21.00;99.90
16408;DHT22;8313;49.894;8.084;2023-05-20T13:33:27;21.00;99.90
16408;DHT22;8313;49.894;8.084;2023-05-20T13:35:53;21.00;99.90
16408;DHT22;8313;49.894;8.084;2023-05-20T13:38:18;21.10;99.90
16408;DHT22;8313;49.894;8.084;2023-05-20T13:40:44;21.00;99.90
16408;DHT22;8313;49.894;8.084;2023-05-20T13:43:10;21.10;99.90
16408;DHT22;8313;49.894;8.084;2023-05-20T13:45:35;21.20;99.90
16408;DHT22;8313;49.894;8.084;2023-05-20T13:48:01;21.20;99.90
16408;DHT22;8313;49.894;8.084;2023-05-20T13:50:27;21.20;99.90
16408;DHT22;8313;49.894;8.084;2023-05-20T13:52:53;21.10;99.90
16408;DHT22;8313;49.894;8.084;2023-05-20T13:55:18;21.10;99.90
16408;DHT22;8313;49.894;8.084;2023-05-20T13:57:44;21.10;99.90
16408;DHT22;8313;49.894;8.084;2023-05-20T14:00:10;21.10;99.90
16408;DHT22;8313;49.894;8.084;2023-05-20T14:02:36;21.30;99.90
16408;DHT22;8313;49.894;8.084;2023-05-20T14:05:02;21.30;99.90
16408;DHT22;8313;49.894;8.084;2023-05-20T14:07:28;21.30;99.90
16408;DHT22;8313;49.894;8.084;2023-05-20T14:09:53;21.20;99.90
16408;DHT22;8313;49.894;8.084;2023-05-20T14:12:19;21.30;99.90
16408;DHT22;8313;49.894;8.084;2023-05-20T14:14:47;21.40;99.90
16408;DHT22;8313;49.894;8.084;2023-05-20T14:17:12;21.30;99.90
16408;DHT22;8313;49.894;8.084;2023-05-20T14:19:38;21.20;99.90
16408;DHT22;8313;49.894;8.084;2023-05-20T14:22:04;21.10;99.90
16408;DHT22;8313;49.894;8.084;2023-05-20T14:24:29;21.10;99.90
16408;DHT22;8313;49.894;8.084;2023-05-20T14:26:55;21.20;99.90
16408;DHT22;8313;49.894;8.084;2023-05-20T14:29:21;21.20;99.90
16408;DHT22;8313;49.894;8.084;2023-05-20T14:31:46;21.10;99.90
16408;DHT22;8313;49.894;8.084;2023-05-20T14:34:12;21.10;99.90
16408;DHT22;8313;49.894;8.084;2023-05-20T14:36:38;21.10;99.90
16408;DHT22;8313;49.894;8.084;2023-05-20T14:39:04;21.20;99.90
16408;DHT22;8313;49.894;8.084;2023-05-20T14:41:29;21.30;99.90
16408;DHT22;8313;49.894;8.084;2023-05-20T14:43:55;21.30;99.90
16408;DHT22;8313;49.894;8.084;2023-05-20T14:46:21;21.30;99.90
16408;DHT22;8313;49.894;8.084;2023-05-20T14:48:46;21.30;99.90
16408;DHT22;8313;49.894;8.084;2023-05-20T14:51:12;21.60;99.90
16408;DHT22;8313;49.894;8.084;2023-05-20T14:53:40;21.60;99.90
16408;DHT22;8313;49.894;8.084;2023-05-20T14:56:06;21.40;99.90
16408;DHT22;8313;49.894;8.084;2023-05-20T14:58:32;21.40;99.90
16408;DHT22;8313;49.894;8.084;2023-05-20T15:00:57;21.40;99.90
16408;DHT22;8313;49.894;8.084;2023-05-20T15:03:23;21.40;99.90
16408;DHT22;8313;49.894;8.084;2023-05-20T15:05:49;21.40;99.90
16408;DHT22;8313;49.894;8.084;2023-05-20T15:08:14;21.40;99.90
16408;DHT22;8313;49.894;8.084;2023-05-20T15:10:40;21.40;99.90
16408;DHT22;8313;49.894;8.084;2023-05-20T15:13:06;21.50;99.90
16408;DHT22;8313;49.894;8.084;2023-05-20T15:15:32;21.50;99.90
16408;DHT22;8313;49.894;8.084;2023-05-20T15:17:58;21.40;99.90
16408;DHT22;8313;49.894;8.084;2023-05-20T15:20:24;21.40;99.90
16408;DHT22;8313;49.894;8.084;2023-05-20T15:22:50;21.60;99.90
16408;DHT22;8313;49.894;8.084;2023-05-20T15:25:15;21.60;99.90
16408;DHT22;8313;49.894;8.084;2023-05-20T15:27:41;21.60;99.90
16408;DHT22;8313;49.894;8.084;2023-05-20T15:30:08;21.50;99.90
16408;DHT22;8313;49.894;8.084;2023-05-20T15:32:34;21.40;99.90
16408;DHT22;8313;49.894;8.084;2023-05-20T15:35:00;21.50;99.90
16408;DHT22;8313;49.894;8.084;2023-05-20T15:37:26;21.50;99.90
16408;DHT22;8313;49.894;8.084;2023-05-20T15:39:52;21.50;99.90
16408;DHT22;8313;49.894;8.084;2023-05-20T15:42:18;21.60;99.90
16408;DHT22;8313;49.894;8.084;2023-05-20T15:44:44;21.50;99.90
16408;DHT22;8313;49.894;8.084;2023-05-20T15:47:10;21.50;99.90
16408;DHT22;8313;49.894;8.084;2023-05-20T15:49:36;21.60;99.90
16408;DHT22;8313;49.894;8.084;2023-05-20T15:52:02;21.50;99.90
16408;DHT22;8313;49.894;8.084;2023-05-20T15:54:28;21.40;99.90
16408;DHT22;8313;49.894;8.084;2023-05-20T15:56:54;21.50;99.90